Latest Coastal Weather Observations for Low Head

IDV60701

Issued at 1:31 am EST Monday 2 May 2016 (issued every 10 minutes, with the page automatically refreshed every 10 minutes)

About coastal observations | Map of coastal stations | Coastal observations for VIC | Marine services | Other Formats
Station Details ID: 091293 Name: LOW HEAD Lat: -41.05 Lon: 146.79 Height: 3.0 m
Data from the previous 72 hours. | See also: Recent months at Low Head
Date/Time
EST
Temp

°C
Wind Pressure Rain
since 9am
mm
Weather Cloud Vis
km
Sea
Height
m
Swell
Dir
 
Speed
knots
Gust
knots
hPa Trend Height
m
Period
s
Dir
02/01:30am 12.8 W 29 35 1006.9 - 4.6 - - - - - - -
02/01:00am 12.6 W 28 34 1006.8 - 4.6 - - - - - - -
02/12:30am 12.6 W 28 33 1006.5 - 4.6 - - - - - - -
02/12:00am 12.6 W 27 33 1006.6 - 4.6 - - - - - - -
 
Date/Time
EST
Temp

°C
Wind Pressure Rain
since 9am
mm
Weather Cloud Vis
km
Sea
Height
m
Swell
Dir
 
Speed
knots
Gust
knots
hPa Trend Height
m
Period
s
Dir
01/11:30pm 12.5 W 23 29 1006.6 - 4.6 - - - - - - -
01/11:00pm 12.8 W 27 34 1006.4 - 4.6 - - - - - - -
01/10:30pm 12.8 W 31 37 1006.2 - 4.6 - - - - - - -
01/10:00pm 12.7 W 28 36 1006.0 - 4.6 - - - - - - -
01/09:30pm 12.8 W 30 35 1005.6 - 4.6 - - - - - - -
01/09:00pm 13.2 W 29 36 1005.1 - 4.6 - - - - - - -
01/08:30pm 13.0 WSW 27 33 1004.5 - 4.6 - - - - - - -
01/08:00pm 13.2 WSW 30 37 1003.9 - 4.6 - - - - - - -
01/07:30pm 13.7 W 31 40 1003.5 - 4.6 - - - - - - -
01/07:00pm 13.4 W 32 38 1002.5 - 4.6 - - - - - - -
01/06:30pm 14.1 W 33 41 1001.6 - 4.6 - - - - - - -
01/06:00pm 14.0 W 32 40 1000.9 - 4.6 - - - - - - -
01/05:30pm 14.4 W 35 45 999.4 - 4.6 - - - - - - -
01/05:03pm 14.1 W 35 45 998.6 - 4.6 - - - - - - -
01/05:00pm 14.4 W 35 43 998.4 - 4.6 - - - - - - -
01/04:32pm 14.0 W 35 45 997.9 - 4.6 - - - - - - -
01/04:30pm 14.0 W 36 43 997.9 - 4.6 - - - - - - -
01/04:19pm 14.0 W 36 46 997.6 - 4.6 - - - - - - -
01/04:00pm 14.0 W 36 45 997.0 - 4.6 - - - - - - -
01/03:39pm 14.7 W 36 46 996.6 - 4.6 - - - - - - -
01/03:30pm 14.3 W 37 45 996.6 - 4.6 - - - - - - -
01/03:12pm 14.0 W 35 45 996.2 - 4.6 - - - - - - -
01/03:00pm 14.0 W 37 43 996.1 - 4.6 - - - - - - -
01/02:46pm 14.1 W 37 47 995.8 - 4.6 - - - - - - -
01/02:30pm 14.2 W 39 47 995.3 - 4.6 - - - - - - -
01/02:04pm 13.8 W 42 53 994.1 - 4.6 - - - - - - -
01/02:00pm 14.0 W 40 48 994.0 - 4.6 - - - - - - -
01/01:30pm 14.5 W 44 55 992.2 - 4.6 - - - - - - -
01/01:00pm 14.6 WNW 41 55 992.1 - 4.4 - - - - - - -
01/12:35pm 14.7 WNW 37 48 992.4 - 4.4 - - - - - - -
01/12:30pm 15.0 WNW 37 45 992.5 - 4.4 - - - - - - -
01/12:24pm 14.9 WNW 36 45 992.5 - 4.4 - - - - - - -
01/12:00pm 15.8 NW 28 38 992.7 - 4.4 - - - - - - -
01/11:59am 15.8 NW 28 38 992.7 - 4.4 - - - - - - -
01/11:30am 15.6 NNW 32 40 993.4 - 4.4 - - - - - - -
01/11:00am 15.9 NNW 32 38 994.5 - 4.4 - - - - - - -
01/10:30am 15.9 NNW 32 40 995.7 - 4.4 - - - - - - -
01/10:28am 15.8 NNW 31 39 995.7 - 4.4 - - - - - - -
01/10:00am 14.1 NW 23 34 996.2 - 4.4 - - - - - - -
01/09:57am 14.5 NW 23 34 996.3 - 2.8 - - - - - - -
01/09:49am 13.4 NNW 27 34 996.2 - 2.6 - - - - - - -
01/09:30am 16.3 N 25 34 996.4 - 0.0 - - - - - - -
01/09:00am 16.3 N 23 29 997.5 - 12.6 Recent precip. - - - - - -
01/08:52am 16.2 N 21 27 997.6 - 12.6 - - - - - - -
01/08:30am 15.6 NNE 16 18 997.7 - 12.6 - - - - - - -
01/08:00am 15.1 NE 6 10 997.4 - 12.4 - - - - - - -
01/07:47am 15.1 N 11 18 997.6 - 12.2 - - - - - - -
01/07:30am 14.9 NW 17 23 999.7 - 10.8 - - - - - - -
01/07:00am 15.1 WNW 16 19 1000.0 - 9.0 - - - - - - -
01/06:30am 15.0 WNW 24 27 1000.0 - 7.8 - - - - - - -
01/06:00am 16.8 WNW 27 34 999.5 - 4.6 - - - - - - -
01/05:55am 16.6 NNW 22 33 999.2 - 4.6 - - - - - - -
01/05:53am 17.0 N 18 33 999.4 - 4.6 - - - - - - -
01/05:52am 17.3 NNE 17 33 999.2 - 4.6 - - - - - - -
01/05:30am 18.5 NE 17 20 998.9 - 4.6 - - - - - - -
01/05:00am 18.4 NE 19 21 999.5 - 4.6 - - - - - - -
01/04:30am 18.5 NNE 19 22 1000.5 - 4.6 - - - - - - -
01/04:00am 18.1 NE 15 17 1001.2 - 4.6 - - - - - - -
01/03:30am 18.0 NE 14 16 1001.7 - 4.6 - - - - - - -
01/03:00am 18.3 NNE 17 18 1002.3 - 4.6 - - - - - - -
01/02:30am 18.0 NE 17 19 1002.9 - 4.6 - - - - - - -
01/02:00am 18.0 NE 17 19 1003.5 - 4.6 - - - - - - -
01/01:30am 18.1 NNE 17 21 1004.1 - 4.6 - - - - - - -
01/01:00am 18.2 NNE 16 19 1005.0 - 4.6 - - - - - - -
01/12:30am 18.4 N 17 19 1006.1 - 4.6 - - - - - - -
01/12:00am 18.3 NNE 18 20 1006.7 - 4.6 - - - - - - -
 
Date/Time
EST
Temp

°C
Wind Pressure Rain
since 9am
mm
Weather Cloud Vis
km
Sea
Height
m
Swell
Dir
 
Speed
knots
Gust
knots
hPa Trend Height
m
Period
s
Dir
30/11:30pm 18.3 NNE 20 22 1007.4 - 4.6 - - - - - - -
30/11:00pm 18.3 NNE 22 25 1007.6 - 4.6 - - - - - - -
30/10:30pm 18.3 NNE 19 23 1008.0 - 4.6 - - - - - - -
30/10:00pm 18.2 NNE 20 24 1008.5 - 4.6 - - - - - - -
30/09:30pm 18.2 NNE 19 22 1008.8 - 4.6 - - - - - - -
30/09:00pm 18.2 NNE 16 18 1008.9 - 4.6 - - - - - - -
30/08:30pm 18.0 NNE 13 15 1009.0 - 4.6 - - - - - - -
30/08:00pm 17.9 NE 13 15 1009.4 - 4.6 - - - - - - -
30/07:30pm 18.0 NE 14 16 1009.4 - 4.6 - - - - - - -
30/07:00pm 18.0 NE 12 14 1009.6 - 4.6 - - - - - - -
30/06:30pm 18.0 NNE 12 14 1009.8 - 4.6 - - - - - - -
30/06:00pm 18.0 NNE 12 13 1009.9 - 4.6 - - - - - - -
30/05:30pm 18.0 NNE 11 13 1009.9 - 4.6 - - - - - - -
30/05:00pm 17.9 N 11 13 1010.2 - 4.6 - - - - - - -
30/04:30pm 18.0 N 12 14 1010.3 - 4.6 - - - - - - -
30/04:00pm 18.0 N 12 14 1010.4 - 4.6 - - - - - - -
30/03:30pm 18.0 NNW 13 15 1010.5 - 4.6 - - - - - - -
30/03:00pm 18.1 NNW 13 15 1010.6 - 4.6 - - - - - - -
30/02:30pm 18.1 NNW 16 19 1010.7 - 4.6 - - - - - - -
30/02:00pm 18.2 NNW 16 19 1010.8 - 4.6 - - - - - - -
30/01:30pm 18.5 NNW 16 20 1010.9 - 4.6 - - - - - - -
30/01:00pm 18.8 NNW 15 18 1011.1 - 4.6 - - - - - - -
30/12:30pm 18.5 N 14 17 1011.3 - 4.6 - - - - - - -
30/12:00pm 18.1 N 10 12 1011.8 - 4.6 Recent precip. - - - - - -
30/11:30am 17.2 N 13 16 1012.2 - 4.6 - - - - - - -
30/11:00am 16.9 N 17 22 1012.8 - 2.4 - - - - - - -
30/10:30am 17.6 N 12 14 1012.6 - 0.0 - - - - - - -
30/10:00am 17.6 N 12 14 1012.7 - 0.0 - - - - - - -
30/09:30am 17.8 N 11 13 1012.9 - 0.0 - - - - - - -
30/09:00am 17.7 N 11 13 1013.2 - 19.4 - - - - - - -
30/08:30am 17.3 N 10 12 1013.4 - 19.4 - - - - - - -
30/08:00am 17.1 N 12 14 1013.3 - 19.4 - - - - - - -
30/07:30am 17.1 N 8 9 1012.9 - 19.4 - - - - - - -
30/07:00am 16.9 NNW 8 9 1012.7 - 19.4 - - - - - - -
30/06:30am 16.7 N 9 10 1012.6 - 19.4 - - - - - - -
30/06:00am 16.7 N 10 13 1012.6 - 19.4 - - - - - - -
30/05:30am 15.5 E 6 6 1012.6 - 19.4 - - - - - - -
30/05:00am 15.4 E 4 5 1012.6 - 19.4 - - - - - - -
30/04:30am 15.7 CALM 0 0 1012.4 - 19.4 - - - - - - -
30/04:00am 15.9 SSW 4 5 1012.3 - 19.4 - - - - - - -
30/03:30am 16.5 WSW 6 8 1012.1 - 19.4 - - - - - - -
30/03:00am 16.5 WNW 7 9 1012.1 - 19.4 - - - - - - -
30/02:30am 16.4 WNW 10 11 1012.3 - 19.4 - - - - - - -
30/02:00am 16.5 W 9 12 1012.3 - 19.4 - - - - - - -
30/01:30am 16.5 W 11 13 1012.3 - 19.4 - - - - - - -
30/01:00am 16.4 W 13 14 1012.4 - 19.4 - - - - - - -
30/12:30am 16.4 W 14 17 1012.4 - 19.4 - - - - - - -
30/12:00am 16.6 WNW 16 20 1012.2 - 19.4 - - - - - - -
 
Date/Time
EST
Temp

°C
Wind Pressure Rain
since 9am
mm
Weather Cloud Vis
km
Sea
Height
m
Swell
Dir
 
Speed
knots
Gust
knots
hPa Trend Height
m
Period
s
Dir
29/11:30pm 16.6 WNW 16 20 1012.2 - 19.4 - - - - - - -
29/11:00pm 16.9 NW 17 20 1012.3 - 19.4 - - - - - - -
29/10:30pm 17.1 NW 17 20 1012.4 - 19.4 - - - - - - -
29/10:00pm 16.9 NW 18 23 1012.4 - 19.4 - - - - - - -
29/09:30pm 17.1 NW 20 23 1012.5 - 19.4 - - - - - - -
29/09:00pm 17.1 NW 20 24 1012.3 - 19.4 - - - - - - -
29/08:30pm 16.9 NNW 20 24 1012.0 - 19.4 - - - - - - -
29/08:00pm 16.6 NNW 18 22 1011.9 - 19.4 - - - - - - -
29/07:30pm 16.9 NNW 21 25 1012.1 - 18.6 - - - - - - -
29/07:00pm 16.8 N 18 22 1011.4 - 18.6 - - - - - - -
29/06:30pm 16.5 NNW 21 24 1011.8 - 18.6 - - - - - - -
29/06:00pm 16.2 NNW 19 24 1011.9 - 17.6 Rain - - - - - -
29/05:30pm 16.6 NNW 16 20 1011.6 - 15.4 - - - - - - -
29/05:00pm 16.6 N 17 19 1011.8 - 14.2 - - - - - - -
29/04:30pm 16.8 N 16 19 1011.9 - 13.0 - - - - - - -
29/04:00pm 16.9 N 15 17 1011.9 - 10.8 - - - - - - -
29/03:30pm 16.7 N 14 17 1011.9 - 9.6 - - - - - - -
29/03:00pm 16.8 N 15 18 1012.4 - 8.0 Rain - - - - - -
29/02:30pm 17.0 N 12 14 1012.3 - 7.0 - - - - - - -
29/02:00pm 16.8 NNE 9 11 1012.3 - 6.2 - - - - - - -
29/01:30pm 16.8 N 6 7 1012.3 - 5.4 - - - - - - -
29/01:00pm 16.7 NNW 7 9 1012.7 - 4.4 - - - - - - -
29/12:30pm 17.5 NW 3 5 1012.8 - 2.0 - - - - - - -
29/12:00pm 17.7 W 5 7 1012.9 - 1.2 Recent precip. - - - - - -
29/11:30am 17.8 WNW 7 8 1013.6 - 1.2 - - - - - - -
29/11:00am 17.8 WSW 5 6 1014.1 - 0.8 - - - - - - -
29/10:30am 17.6 SSW 5 6 1014.5 - 0.0 - - - - - - -
29/10:00am 17.8 SE 4 6 1014.8 - 0.0 - - - - - - -
29/09:30am 17.7 SSE 5 7 1014.5 - 0.0 - - - - - - -
29/09:00am 16.8 SSE 7 10 1014.6 - 0.4 - - - - - - -
29/08:30am 16.5 SE 5 8 1014.9 - 0.4 - - - - - - -
29/08:00am 16.3 ESE 7 8 1014.9 - 0.4 - - - - - - -
29/07:30am 16.1 ESE 4 6 1015.2 - 0.4 - - - - - - -
29/07:00am 16.2 ESE 6 8 1015.0 - 0.4 - - - - - - -
29/06:30am 15.9 SSE 7 10 1014.6 - 0.4 - - - - - - -
29/06:00am 15.7 SSE 7 9 1014.9 - 0.4 - - - - - - -
29/05:30am 15.9 SSE 7 8 1015.2 - 0.4 - - - - - - -
29/05:00am 15.5 SE 5 7 1015.1 - 0.4 - - - - - - -
29/04:30am 15.5 SE 6 8 1015.3 - 0.4 - - - - - - -
29/04:00am 15.4 SE 5 8 1015.5 - 0.4 - - - - - - -
29/03:30am 15.7 ESE 6 9 1015.7 - 0.2 - - - - - - -
29/03:00am 16.1 ESE 7 10 1016.3 - 0.2 - - - - - - -
29/02:30am 16.3 ESE 9 11 1016.6 - 0.2 - - - - - - -
29/02:00am 16.5 ESE 7 8 1017.3 - 0.2 - - - - - - -

Other Formats:

Comma delimited format used in spreadsheet applications
http://www.bom.gov.au/fwo/IDV60701/IDV60701.95964.axf

JavaScript Object Notation format (JSON) in row-major order
http://www.bom.gov.au/fwo/IDV60701/IDV60701.95964.json